RYR7NW EIDW-EPKK
Flight info
| Callsign | RYR7NW |
|---|---|
| Flight time | N/A |
| Altitude | 37000 |
| Route | ENDEQ3J ENDEQ Q36 ALAVA Z195 MALUD UL975 WAL M16 DOLAS L603 LAMSO DCT POVEL DCT MAG DCT BOLBO DCT LASIS T714 MOFKE |
| Aircraft | B38M/M-SDE1FGHILORVWXY/HB1 |
Departure
| Time | N/A |
|---|---|
| Airport | Dublin Airport (EIDW) |
Arrival
| Time | 2026-05-07 21:37 |
|---|---|
| Airport | Kraków John Paul II International Airport (EPKK) |
| Time | Latitude | Longitude | Altitude | Speed | Heading |
|---|---|---|---|---|---|
| 2026-05-07 20:25 | 52.48910 | 7.01882 | 37110 ft | 468 kts | 98° |
| 2026-05-07 20:25 | 52.48083 | 7.12427 | 37105 ft | 468 kts | 98° |
| 2026-05-07 20:26 | 52.47247 | 7.22978 | 37103 ft | 468 kts | 98° |
| 2026-05-07 20:26 | 52.46410 | 7.33406 | 37101 ft | 468 kts | 99° |
| 2026-05-07 20:27 | 52.45556 | 7.43930 | 37114 ft | 468 kts | 99° |
| 2026-05-07 20:27 | 52.44690 | 7.54478 | 37113 ft | 468 kts | 99° |
| 2026-05-07 20:28 | 52.43815 | 7.64986 | 37114 ft | 468 kts | 100° |
| 2026-05-07 20:28 | 52.42666 | 7.75437 | 37115 ft | 468 kts | 101° |
| 2026-05-07 20:29 | 52.41514 | 7.85943 | 37109 ft | 468 kts | 101° |
| 2026-05-07 20:29 | 52.40361 | 7.96449 | 37109 ft | 468 kts | 101° |
| 2026-05-07 20:30 | 52.39203 | 8.06928 | 37109 ft | 468 kts | 101° |
| 2026-05-07 20:30 | 52.38035 | 8.17403 | 37106 ft | 468 kts | 101° |
| 2026-05-07 20:31 | 52.36854 | 8.27902 | 37103 ft | 468 kts | 101° |
| 2026-05-07 20:31 | 52.35673 | 8.38317 | 37106 ft | 468 kts | 101° |
| 2026-05-07 20:32 | 52.34476 | 8.48789 | 37108 ft | 468 kts | 101° |
| 2026-05-07 20:32 | 52.33270 | 8.59250 | 37111 ft | 468 kts | 102° |
| 2026-05-07 20:33 | 52.32054 | 8.69707 | 37118 ft | 468 kts | 102° |
| 2026-05-07 20:33 | 52.30832 | 8.80136 | 37122 ft | 468 kts | 102° |
| 2026-05-07 20:34 | 52.29599 | 8.90577 | 37123 ft | 468 kts | 102° |
| 2026-05-07 20:34 | 52.28360 | 9.00981 | 37129 ft | 468 kts | 102° |
| 2026-05-07 20:35 | 52.27108 | 9.11412 | 37132 ft | 468 kts | 102° |
| 2026-05-07 20:35 | 52.25849 | 9.21825 | 37125 ft | 468 kts | 102° |
| 2026-05-07 20:36 | 52.24575 | 9.32275 | 37127 ft | 468 kts | 102° |
| 2026-05-07 20:36 | 52.23296 | 9.42687 | 37121 ft | 468 kts | 102° |
| 2026-05-07 20:37 | 52.22005 | 9.53108 | 37119 ft | 468 kts | 102° |
| 2026-05-07 20:37 | 52.20714 | 9.63457 | 37124 ft | 468 kts | 102° |
| 2026-05-07 20:38 | 52.19398 | 9.73922 | 37122 ft | 469 kts | 102° |
| 2026-05-07 20:38 | 52.18087 | 9.84273 | 37121 ft | 469 kts | 102° |
| 2026-05-07 20:39 | 52.16760 | 9.94673 | 37122 ft | 469 kts | 102° |
| 2026-05-07 20:39 | 52.15421 | 10.05085 | 37116 ft | 469 kts | 102° |
| 2026-05-07 20:40 | 52.14074 | 10.15486 | 37115 ft | 469 kts | 102° |
| 2026-05-07 20:40 | 52.12718 | 10.25874 | 37116 ft | 469 kts | 102° |
| 2026-05-07 20:41 | 52.11354 | 10.36253 | 37116 ft | 469 kts | 102° |
| 2026-05-07 20:41 | 52.09979 | 10.46631 | 37117 ft | 469 kts | 103° |
| 2026-05-07 20:42 | 52.08595 | 10.57008 | 37118 ft | 469 kts | 103° |
| 2026-05-07 20:42 | 52.07210 | 10.67323 | 37116 ft | 469 kts | 103° |
| 2026-05-07 20:43 | 52.05808 | 10.77681 | 37113 ft | 469 kts | 103° |
| 2026-05-07 20:43 | 52.04398 | 10.88034 | 37109 ft | 469 kts | 103° |
| 2026-05-07 20:44 | 52.02977 | 10.98389 | 37114 ft | 469 kts | 103° |
| 2026-05-07 20:44 | 52.01548 | 11.08731 | 37116 ft | 469 kts | 103° |
| 2026-05-07 20:45 | 52.00111 | 11.19058 | 37117 ft | 469 kts | 103° |
| 2026-05-07 20:45 | 51.98664 | 11.29387 | 37125 ft | 469 kts | 103° |
| 2026-05-07 20:46 | 51.97209 | 11.39700 | 37127 ft | 469 kts | 103° |
| 2026-05-07 20:46 | 51.95742 | 11.50027 | 37130 ft | 469 kts | 103° |
| 2026-05-07 20:47 | 51.94277 | 11.60277 | 37124 ft | 469 kts | 104° |
| 2026-05-07 20:47 | 51.92795 | 11.70565 | 37122 ft | 469 kts | 104° |
| 2026-05-07 20:48 | 51.91552 | 11.79146 | 37116 ft | 469 kts | 104° |
| 2026-05-07 20:48 | 51.90053 | 11.89432 | 37114 ft | 469 kts | 104° |
| 2026-05-07 20:49 | 51.88542 | 11.99737 | 37108 ft | 469 kts | 104° |
| 2026-05-07 20:49 | 51.87033 | 12.09952 | 37111 ft | 469 kts | 104° |
| 2026-05-07 20:50 | 51.85507 | 12.20216 | 37106 ft | 469 kts | 104° |
| 2026-05-07 20:50 | 51.83969 | 12.30495 | 37103 ft | 469 kts | 104° |
| 2026-05-07 20:51 | 51.82425 | 12.40752 | 37107 ft | 469 kts | 104° |
| 2026-05-07 20:51 | 51.80872 | 12.50996 | 37107 ft | 469 kts | 104° |
| 2026-05-07 20:52 | 51.79308 | 12.61252 | 37104 ft | 469 kts | 105° |
| 2026-05-07 20:52 | 51.77737 | 12.71483 | 37105 ft | 469 kts | 105° |
| 2026-05-07 20:53 | 51.76157 | 12.81710 | 37103 ft | 469 kts | 105° |
| 2026-05-07 20:53 | 51.74568 | 12.91931 | 37103 ft | 469 kts | 105° |
| 2026-05-07 20:54 | 51.72978 | 13.02093 | 37102 ft | 469 kts | 105° |
| 2026-05-07 20:54 | 51.71378 | 13.12261 | 37101 ft | 470 kts | 105° |
| 2026-05-07 20:55 | 51.69762 | 13.22462 | 37101 ft | 469 kts | 105° |
| 2026-05-07 20:55 | 51.68139 | 13.32648 | 37101 ft | 469 kts | 105° |
| 2026-05-07 20:56 | 51.66514 | 13.42778 | 37101 ft | 469 kts | 105° |
| 2026-05-07 20:56 | 51.64872 | 13.52958 | 37092 ft | 470 kts | 105° |
| 2026-05-07 20:57 | 51.63220 | 13.63135 | 37097 ft | 470 kts | 106° |
| 2026-05-07 20:57 | 51.61558 | 13.73317 | 37088 ft | 470 kts | 106° |
| 2026-05-07 20:58 | 51.59889 | 13.83475 | 37088 ft | 470 kts | 106° |
| 2026-05-07 20:58 | 51.58208 | 13.93646 | 37090 ft | 470 kts | 106° |
| 2026-05-07 20:59 | 51.56534 | 14.03720 | 37088 ft | 470 kts | 106° |
| 2026-05-07 20:59 | 51.54835 | 14.13877 | 37085 ft | 470 kts | 106° |
| 2026-05-07 21:00 | 51.53129 | 14.24019 | 37086 ft | 470 kts | 107° |
| 2026-05-07 21:00 | 51.51423 | 14.34102 | 37086 ft | 470 kts | 107° |
| 2026-05-07 21:01 | 51.49696 | 14.44251 | 37076 ft | 471 kts | 107° |
| 2026-05-07 21:01 | 51.47958 | 14.54403 | 37087 ft | 471 kts | 107° |
| 2026-05-07 21:02 | 51.46225 | 14.64471 | 37078 ft | 471 kts | 107° |
| 2026-05-07 21:02 | 51.44466 | 14.74644 | 37082 ft | 471 kts | 107° |
| 2026-05-07 21:03 | 51.42703 | 14.84748 | 37086 ft | 471 kts | 107° |
| 2026-05-07 21:03 | 51.40944 | 14.94783 | 37074 ft | 471 kts | 108° |
| 2026-05-07 21:04 | 51.38502 | 15.04450 | 37099 ft | 468 kts | 118° |
| 2026-05-07 21:04 | 51.35943 | 15.14048 | 37100 ft | 469 kts | 114° |
| 2026-05-07 21:05 | 51.33484 | 15.23726 | 37073 ft | 468 kts | 114° |
| 2026-05-07 21:05 | 51.30992 | 15.33354 | 37065 ft | 468 kts | 114° |
| 2026-05-07 21:06 | 51.28506 | 15.42912 | 37067 ft | 468 kts | 115° |
| 2026-05-07 21:06 | 51.25998 | 15.52514 | 37071 ft | 468 kts | 115° |
| 2026-05-07 21:07 | 51.23486 | 15.62092 | 37073 ft | 468 kts | 115° |
| 2026-05-07 21:07 | 51.20966 | 15.71658 | 37072 ft | 467 kts | 115° |
| 2026-05-07 21:08 | 51.18440 | 15.81213 | 37072 ft | 467 kts | 115° |
| 2026-05-07 21:08 | 51.15947 | 15.90784 | 37068 ft | 467 kts | 115° |
| 2026-05-07 21:09 | 51.13479 | 16.00356 | 37068 ft | 467 kts | 115° |
| 2026-05-07 21:09 | 51.11003 | 16.09913 | 37066 ft | 467 kts | 115° |
| 2026-05-07 21:10 | 51.08537 | 16.19387 | 37064 ft | 466 kts | 115° |
| 2026-05-07 21:10 | 51.06045 | 16.28923 | 37064 ft | 466 kts | 115° |
| 2026-05-07 21:11 | 51.03551 | 16.38427 | 37062 ft | 466 kts | 115° |
| 2026-05-07 21:11 | 50.99789 | 16.52694 | 37063 ft | 466 kts | 116° |
| 2026-05-07 21:12 | 50.97272 | 16.62196 | 37065 ft | 466 kts | 116° |
| 2026-05-07 21:12 | 50.94755 | 16.71661 | 37069 ft | 465 kts | 116° |
| 2026-05-07 21:13 | 50.92232 | 16.81107 | 37068 ft | 465 kts | 116° |
| 2026-05-07 21:13 | 50.89709 | 16.90519 | 37063 ft | 464 kts | 116° |
| 2026-05-07 21:14 | 50.87176 | 16.99926 | 37061 ft | 464 kts | 116° |
| 2026-05-07 21:14 | 50.84657 | 17.09249 | 36880 ft | 460 kts | 116° |
| 2026-05-07 21:15 | 50.83378 | 17.13937 | 35784 ft | 468 kts | 117° |
| 2026-05-07 21:15 | 50.82084 | 17.18635 | 35328 ft | 461 kts | 117° |
| 2026-05-07 21:15 | 50.80812 | 17.23254 | 34843 ft | 456 kts | 118° |
| 2026-05-07 21:15 | 50.79549 | 17.27834 | 34277 ft | 453 kts | 118° |
| 2026-05-07 21:16 | 50.78292 | 17.32381 | 33628 ft | 450 kts | 118° |
| 2026-05-07 21:16 | 50.77054 | 17.36850 | 32911 ft | 449 kts | 119° |
| 2026-05-07 21:16 | 50.75803 | 17.41359 | 32169 ft | 448 kts | 119° |
| 2026-05-07 21:16 | 50.74551 | 17.45862 | 31421 ft | 447 kts | 119° |
| 2026-05-07 21:17 | 50.73305 | 17.50361 | 30664 ft | 447 kts | 119° |
| 2026-05-07 21:17 | 50.72074 | 17.54864 | 29889 ft | 446 kts | 119° |
| 2026-05-07 21:17 | 50.70845 | 17.59346 | 29160 ft | 443 kts | 119° |
| 2026-05-07 21:17 | 50.69623 | 17.63788 | 28510 ft | 438 kts | 119° |
| 2026-05-07 21:18 | 50.68412 | 17.68183 | 27843 ft | 435 kts | 119° |
| 2026-05-07 21:18 | 50.67219 | 17.72501 | 27220 ft | 431 kts | 119° |
| 2026-05-07 21:18 | 50.66024 | 17.76820 | 26610 ft | 428 kts | 119° |
| 2026-05-07 21:18 | 50.64838 | 17.81101 | 26014 ft | 425 kts | 119° |
| 2026-05-07 21:19 | 50.63627 | 17.85314 | 25418 ft | 420 kts | 122° |
| 2026-05-07 21:19 | 50.62074 | 17.89135 | 24854 ft | 410 kts | 133° |
| 2026-05-07 21:19 | 50.60352 | 17.92709 | 24258 ft | 410 kts | 129° |
| 2026-05-07 21:19 | 50.58820 | 17.96479 | 23717 ft | 409 kts | 127° |
| 2026-05-07 21:20 | 50.57307 | 18.00266 | 23107 ft | 407 kts | 127° |
| 2026-05-07 21:20 | 50.55802 | 18.04014 | 22495 ft | 404 kts | 127° |
| 2026-05-07 21:20 | 50.54306 | 18.07729 | 21970 ft | 400 kts | 127° |
| 2026-05-07 21:20 | 50.53402 | 18.09973 | 21548 ft | 401 kts | 126° |
| 2026-05-07 21:21 | 50.51933 | 18.13619 | 21032 ft | 397 kts | 126° |
| 2026-05-07 21:21 | 50.50452 | 18.17281 | 20472 ft | 395 kts | 126° |
| 2026-05-07 21:21 | 50.49074 | 18.21021 | 19933 ft | 395 kts | 121° |
| 2026-05-07 21:21 | 50.47780 | 18.24812 | 19418 ft | 393 kts | 122° |
| 2026-05-07 21:22 | 50.46472 | 18.28580 | 18907 ft | 391 kts | 122° |
| 2026-05-07 21:22 | 50.45161 | 18.32316 | 18407 ft | 390 kts | 122° |
| 2026-05-07 21:22 | 50.43852 | 18.36024 | 17875 ft | 388 kts | 122° |
| 2026-05-07 21:22 | 50.42541 | 18.39726 | 17362 ft | 385 kts | 122° |
| 2026-05-07 21:23 | 50.41244 | 18.43389 | 16852 ft | 383 kts | 122° |
| 2026-05-07 21:23 | 50.39952 | 18.47028 | 16353 ft | 382 kts | 121° |
| 2026-05-07 21:23 | 50.38662 | 18.50657 | 15887 ft | 379 kts | 121° |
| 2026-05-07 21:23 | 50.37403 | 18.54195 | 15415 ft | 377 kts | 121° |
| 2026-05-07 21:24 | 50.36145 | 18.57727 | 14944 ft | 376 kts | 121° |
| 2026-05-07 21:24 | 50.34876 | 18.61284 | 14502 ft | 374 kts | 121° |
| 2026-05-07 21:24 | 50.33607 | 18.64837 | 14036 ft | 372 kts | 121° |
| 2026-05-07 21:24 | 50.32348 | 18.68353 | 13639 ft | 366 kts | 121° |
| 2026-05-07 21:25 | 50.31120 | 18.71783 | 13272 ft | 357 kts | 121° |
| 2026-05-07 21:25 | 50.29919 | 18.75129 | 12939 ft | 347 kts | 121° |
| 2026-05-07 21:25 | 50.28745 | 18.78397 | 12512 ft | 342 kts | 121° |
| 2026-05-07 21:25 | 50.27583 | 18.81629 | 11993 ft | 340 kts | 121° |
| 2026-05-07 21:26 | 50.26438 | 18.84809 | 11472 ft | 338 kts | 121° |
| 2026-05-07 21:26 | 50.25287 | 18.88000 | 10978 ft | 336 kts | 121° |
| 2026-05-07 21:26 | 50.24146 | 18.91162 | 10549 ft | 329 kts | 121° |
| 2026-05-07 21:26 | 50.23035 | 18.94234 | 10140 ft | 319 kts | 121° |
| 2026-05-07 21:27 | 50.21963 | 18.97197 | 9751 ft | 309 kts | 121° |
| 2026-05-07 21:27 | 50.20918 | 19.00082 | 9386 ft | 299 kts | 121° |
| 2026-05-07 21:27 | 50.19910 | 19.02862 | 9060 ft | 289 kts | 121° |
| 2026-05-07 21:27 | 50.18932 | 19.05555 | 8778 ft | 281 kts | 121° |
| 2026-05-07 21:28 | 50.17982 | 19.08169 | 8633 ft | 273 kts | 121° |
| 2026-05-07 21:28 | 50.17061 | 19.10702 | 8330 ft | 272 kts | 121° |
| 2026-05-07 21:28 | 50.16126 | 19.13268 | 8011 ft | 271 kts | 121° |
| 2026-05-07 21:28 | 50.15194 | 19.15825 | 7694 ft | 272 kts | 121° |
| 2026-05-07 21:29 | 50.14259 | 19.18389 | 7392 ft | 272 kts | 121° |
| 2026-05-07 21:29 | 50.13325 | 19.20947 | 7103 ft | 271 kts | 121° |
| 2026-05-07 21:29 | 50.12395 | 19.23489 | 6817 ft | 269 kts | 121° |
| 2026-05-07 21:29 | 50.11470 | 19.26018 | 6556 ft | 267 kts | 121° |
| 2026-05-07 21:30 | 50.10860 | 19.27684 | 6384 ft | 266 kts | 121° |
| 2026-05-07 21:30 | 50.09839 | 19.30471 | 6104 ft | 264 kts | 121° |
| 2026-05-07 21:30 | 50.08942 | 19.32914 | 5869 ft | 261 kts | 121° |
| 2026-05-07 21:30 | 50.08048 | 19.35348 | 5603 ft | 258 kts | 121° |
| 2026-05-07 21:31 | 50.07160 | 19.37762 | 5348 ft | 255 kts | 121° |
| 2026-05-07 21:31 | 50.06285 | 19.40141 | 5104 ft | 252 kts | 121° |
| 2026-05-07 21:31 | 50.05419 | 19.42491 | 4866 ft | 248 kts | 121° |
| 2026-05-07 21:31 | 50.04567 | 19.44803 | 4632 ft | 245 kts | 121° |
| 2026-05-07 21:32 | 50.03829 | 19.47115 | 4441 ft | 234 kts | 107° |
| 2026-05-07 21:32 | 50.03670 | 19.49569 | 4199 ft | 225 kts | 84° |
| 2026-05-07 21:32 | 50.03959 | 19.51937 | 3959 ft | 221 kts | 75° |
| 2026-05-07 21:32 | 50.04320 | 19.54241 | 3695 ft | 216 kts | 75° |
| 2026-05-07 21:33 | 50.04645 | 19.56430 | 3444 ft | 205 kts | 76° |
| 2026-05-07 21:33 | 50.04855 | 19.57877 | 3266 ft | 202 kts | 76° |
| 2026-05-07 21:33 | 50.05158 | 19.59997 | 2997 ft | 199 kts | 76° |
| 2026-05-07 21:33 | 50.05551 | 19.62745 | 2651 ft | 189 kts | 76° |
| 2026-05-07 21:34 | 50.05818 | 19.64610 | 2448 ft | 166 kts | 76° |
| 2026-05-07 21:34 | 50.06058 | 19.66280 | 2208 ft | 155 kts | 76° |
| 2026-05-07 21:34 | 50.06296 | 19.67911 | 1993 ft | 153 kts | 76° |
| 2026-05-07 21:34 | 50.06464 | 19.68998 | 1866 ft | 152 kts | 75° |
| 2026-05-07 21:35 | 50.06696 | 19.70589 | 1697 ft | 150 kts | 77° |
| 2026-05-07 21:35 | 50.06898 | 19.72152 | 1465 ft | 148 kts | 77° |
| 2026-05-07 21:35 | 50.07115 | 19.73700 | 1297 ft | 146 kts | 76° |
| 2026-05-07 21:35 | 50.07335 | 19.75228 | 1071 ft | 143 kts | 77° |
| 2026-05-07 21:36 | 50.07538 | 19.76760 | 849 ft | 142 kts | 77° |
| 2026-05-07 21:36 | 50.07730 | 19.78148 | 792 ft | 103 kts | 78° |
| 2026-05-07 21:36 | 50.07833 | 19.78890 | 795 ft | 55 kts | 78° |
| 2026-05-07 21:36 | 50.07915 | 19.79479 | 793 ft | 55 kts | 78° |
| 2026-05-07 21:37 | 50.07983 | 19.79982 | 792 ft | 31 kts | 78° |
| 2026-05-07 21:37 | 50.08010 | 19.80227 | 792 ft | 15 kts | 98° |
| 2026-05-07 21:37 | 50.07933 | 19.80305 | 793 ft | 12 kts | 167° |
| 2026-05-07 21:37 | 50.07845 | 19.80335 | 793 ft | 14 kts | 167° |
| 2026-05-07 21:38 | 50.07742 | 19.80371 | 793 ft | 16 kts | 167° |
| 2026-05-07 21:38 | 50.07627 | 19.80410 | 793 ft | 15 kts | 167° |
| 2026-05-07 21:38 | 50.07534 | 19.80408 | 793 ft | 10 kts | 197° |
| 2026-05-07 21:38 | 50.07476 | 19.80380 | 793 ft | 8 kts | 202° |
| 2026-05-07 21:39 | 50.07432 | 19.80329 | 793 ft | 8 kts | 198° |
| 2026-05-07 21:39 | 50.07380 | 19.80340 | 793 ft | 7 kts | 167° |
| 2026-05-07 21:39 | 50.07358 | 19.80348 | 793 ft | 0 kts | 167° |